sensor_id;sensor_type;location;lat;lon;timestamp;pressure;altitude;pressure_sealevel;temperature;humidity
78488;BME280;67885;49.758;9.582;2023-05-29T00:00:50;99336.09;;;20.65;36.51
78488;BME280;67885;49.758;9.582;2023-05-29T00:03:18;99341.28;;;20.67;36.04
78488;BME280;67885;49.758;9.582;2023-05-29T00:05:44;99331.91;;;20.63;36.71
78488;BME280;67885;49.758;9.582;2023-05-29T00:08:11;99330.13;;;20.55;37.02
78488;BME280;67885;49.758;9.582;2023-05-29T00:10:38;99281.31;;;20.13;36.93
78488;BME280;67885;49.758;9.582;2023-05-29T00:13:05;99334.56;;;20.33;37.99
78488;BME280;67885;49.758;9.582;2023-05-29T00:15:32;99324.47;;;20.20;38.57
78488;BME280;67885;49.758;9.582;2023-05-29T00:17:59;99318.13;;;20.13;38.42
78488;BME280;67885;49.758;9.582;2023-05-29T00:20:27;99299.81;;;19.93;37.54
78488;BME280;67885;49.758;9.582;2023-05-29T00:22:54;99305.13;;;19.78;38.17
78488;BME280;67885;49.758;9.582;2023-05-29T00:25:20;99322.25;;;20.00;37.79
78488;BME280;67885;49.758;9.582;2023-05-29T00:27:47;99316.69;;;20.02;37.13
78488;BME280;67885;49.758;9.582;2023-05-29T00:30:14;99321.63;;;19.98;37.77
78488;BME280;67885;49.758;9.582;2023-05-29T00:32:40;99304.25;;;19.86;38.48
78488;BME280;67885;49.758;9.582;2023-05-29T00:35:08;99313.69;;;19.82;38.93
78488;BME280;67885;49.758;9.582;2023-05-29T00:37:36;99325.28;;;19.82;38.53
78488;BME280;67885;49.758;9.582;2023-05-29T00:40:03;99329.81;;;19.74;38.55
78488;BME280;67885;49.758;9.582;2023-05-29T00:42:30;99320.31;;;19.71;38.13
78488;BME280;67885;49.758;9.582;2023-05-29T00:44:57;99331.19;;;19.69;38.26
78488;BME280;67885;49.758;9.582;2023-05-29T00:47:24;99318.88;;;19.60;38.22
78488;BME280;67885;49.758;9.582;2023-05-29T00:49:51;99328.88;;;19.66;38.99
78488;BME280;67885;49.758;9.582;2023-05-29T00:52:20;99327.56;;;19.62;38.96
78488;BME280;67885;49.758;9.582;2023-05-29T00:54:48;99328.28;;;19.56;39.03
78488;BME280;67885;49.758;9.582;2023-05-29T00:57:16;99334.19;;;19.51;38.81
78488;BME280;67885;49.758;9.582;2023-05-29T00:59:44;99305.09;;;19.32;39.03
78488;BME280;67885;49.758;9.582;2023-05-29T01:02:14;99336.44;;;19.40;38.64
78488;BME280;67885;49.758;9.582;2023-05-29T01:04:42;99329.47;;;19.30;39.03
78488;BME280;67885;49.758;9.582;2023-05-29T01:07:08;99333.00;;;19.23;39.35
78488;BME280;67885;49.758;9.582;2023-05-29T01:09:36;99326.16;;;19.20;39.31
78488;BME280;67885;49.758;9.582;2023-05-29T01:12:16;99327.81;;;19.21;38.67
78488;BME280;67885;49.758;9.582;2023-05-29T01:14:56;99313.41;;;19.14;39.10
78488;BME280;67885;49.758;9.582;2023-05-29T01:17:37;99324.47;;;19.19;39.24
78488;BME280;67885;49.758;9.582;2023-05-29T01:20:18;99321.47;;;19.14;38.90
78488;BME280;67885;49.758;9.582;2023-05-29T01:23:04;99320.31;;;19.08;39.41
78488;BME280;67885;49.758;9.582;2023-05-29T01:25:48;99325.56;;;19.01;40.13
78488;BME280;67885;49.758;9.582;2023-05-29T01:28:21;99316.88;;;18.91;39.97
78488;BME280;67885;49.758;9.582;2023-05-29T01:30:49;99325.09;;;18.81;40.11
78488;BME280;67885;49.758;9.582;2023-05-29T01:33:17;99317.44;;;18.70;40.26
78488;BME280;67885;49.758;9.582;2023-05-29T01:35:43;99310.91;;;18.64;40.92
78488;BME280;67885;49.758;9.582;2023-05-29T01:38:10;99309.91;;;18.65;40.56
78488;BME280;67885;49.758;9.582;2023-05-29T01:40:37;99316.28;;;18.64;40.22
78488;BME280;67885;49.758;9.582;2023-05-29T01:43:04;99315.94;;;18.59;41.10
78488;BME280;67885;49.758;9.582;2023-05-29T01:45:33;99318.00;;;18.49;41.19
78488;BME280;67885;49.758;9.582;2023-05-29T01:48:00;99319.50;;;18.43;41.21
78488;BME280;67885;49.758;9.582;2023-05-29T01:50:27;99315.16;;;18.42;41.28
78488;BME280;67885;49.758;9.582;2023-05-29T01:52:55;99320.84;;;18.39;41.34
78488;BME280;67885;49.758;9.582;2023-05-29T01:55:21;99312.66;;;18.32;41.61
78488;BME280;67885;49.758;9.582;2023-05-29T01:57:49;99311.66;;;18.25;41.81
78488;BME280;67885;49.758;9.582;2023-05-29T02:00:17;99304.28;;;18.19;41.91
78488;BME280;67885;49.758;9.582;2023-05-29T02:02:45;99315.88;;;18.19;41.52
78488;BME280;67885;49.758;9.582;2023-05-29T02:05:12;99310.34;;;18.21;41.34
78488;BME280;67885;49.758;9.582;2023-05-29T02:07:39;99298.78;;;18.04;41.80
78488;BME280;67885;49.758;9.582;2023-05-29T02:10:06;99312.34;;;18.11;41.85
78488;BME280;67885;49.758;9.582;2023-05-29T02:12:33;99303.47;;;18.10;42.02
78488;BME280;67885;49.758;9.582;2023-05-29T02:15:00;99301.31;;;17.97;42.21
78488;BME280;67885;49.758;9.582;2023-05-29T02:17:26;99305.81;;;17.97;42.49
78488;BME280;67885;49.758;9.582;2023-05-29T02:19:54;99295.63;;;17.92;42.20
78488;BME280;67885;49.758;9.582;2023-05-29T02:22:21;99312.53;;;18.01;41.94
78488;BME280;67885;49.758;9.582;2023-05-29T02:24:47;99312.03;;;17.97;42.80
78488;BME280;67885;49.758;9.582;2023-05-29T02:27:14;99311.00;;;17.90;42.84
78488;BME280;67885;49.758;9.582;2023-05-29T02:29:40;99306.81;;;17.79;42.79
78488;BME280;67885;49.758;9.582;2023-05-29T02:32:07;99307.97;;;17.68;43.09
78488;BME280;67885;49.758;9.582;2023-05-29T02:34:33;99283.03;;;17.43;42.94
78488;BME280;67885;49.758;9.582;2023-05-29T02:37:01;99309.81;;;17.60;42.57
78488;BME280;67885;49.758;9.582;2023-05-29T02:39:28;99306.13;;;17.61;42.86
78488;BME280;67885;49.758;9.582;2023-05-29T02:41:55;99306.63;;;17.56;43.03
78488;BME280;67885;49.758;9.582;2023-05-29T02:44:21;99309.97;;;17.50;43.53
78488;BME280;67885;49.758;9.582;2023-05-29T02:46:48;99314.47;;;17.49;43.12
78488;BME280;67885;49.758;9.582;2023-05-29T02:49:15;99314.97;;;17.45;42.82
78488;BME280;67885;49.758;9.582;2023-05-29T02:51:41;99306.44;;;17.41;42.91
78488;BME280;67885;49.758;9.582;2023-05-29T02:54:09;99314.63;;;17.40;42.46
78488;BME280;67885;49.758;9.582;2023-05-29T02:56:37;99307.59;;;17.39;42.54
78488;BME280;67885;49.758;9.582;2023-05-29T02:59:04;99306.94;;;17.36;42.48
78488;BME280;67885;49.758;9.582;2023-05-29T03:01:30;99299.22;;;17.33;42.73
78488;BME280;67885;49.758;9.582;2023-05-29T03:03:58;99303.09;;;17.31;42.80
78488;BME280;67885;49.758;9.582;2023-05-29T03:06:24;99292.84;;;17.18;42.73
78488;BME280;67885;49.758;9.582;2023-05-29T03:08:51;99306.03;;;17.19;43.04
78488;BME280;67885;49.758;9.582;2023-05-29T03:11:19;99309.38;;;17.13;43.04
78488;BME280;67885;49.758;9.582;2023-05-29T03:13:48;99299.50;;;17.06;43.86
78488;BME280;67885;49.758;9.582;2023-05-29T03:16:15;99303.66;;;17.00;43.50
78488;BME280;67885;49.758;9.582;2023-05-29T03:18:42;99311.00;;;16.98;43.58
78488;BME280;67885;49.758;9.582;2023-05-29T03:21:09;99310.50;;;16.94;43.93
78488;BME280;67885;49.758;9.582;2023-05-29T03:23:35;99305.72;;;16.80;44.00
78488;BME280;67885;49.758;9.582;2023-05-29T03:26:02;99316.78;;;16.85;44.00
78488;BME280;67885;49.758;9.582;2023-05-29T03:28:30;99318.25;;;16.79;44.65
78488;BME280;67885;49.758;9.582;2023-05-29T03:30:57;99316.75;;;16.77;44.20
78488;BME280;67885;49.758;9.582;2023-05-29T03:33:23;99322.22;;;16.75;44.49
78488;BME280;67885;49.758;9.582;2023-05-29T03:35:50;99310.34;;;16.69;44.15
78488;BME280;67885;49.758;9.582;2023-05-29T03:38:16;99317.69;;;16.67;44.40
78488;BME280;67885;49.758;9.582;2023-05-29T03:40:43;99317.00;;;16.65;43.88
78488;BME280;67885;49.758;9.582;2023-05-29T03:43:10;99317.69;;;16.67;44.31
78488;BME280;67885;49.758;9.582;2023-05-29T03:45:38;99315.69;;;16.69;44.10
78488;BME280;67885;49.758;9.582;2023-05-29T03:48:05;99313.19;;;16.68;44.59
78488;BME280;67885;49.758;9.582;2023-05-29T03:50:31;99321.53;;;16.65;44.76
78488;BME280;67885;49.758;9.582;2023-05-29T03:52:58;99280.41;;;16.31;44.44
78488;BME280;67885;49.758;9.582;2023-05-29T03:55:26;99330.69;;;16.62;44.65
78488;BME280;67885;49.758;9.582;2023-05-29T03:57:53;99314.94;;;16.51;44.68
78488;BME280;67885;49.758;9.582;2023-05-29T04:00:20;99331.03;;;16.59;45.37
78488;BME280;67885;49.758;9.582;2023-05-29T04:02:48;99342.38;;;16.61;44.94
78488;BME280;67885;49.758;9.582;2023-05-29T04:05:15;99345.59;;;16.65;44.46
78488;BME280;67885;49.758;9.582;2023-05-29T04:07:42;99336.38;;;16.59;44.81
78488;BME280;67885;49.758;9.582;2023-05-29T04:10:09;99349.47;;;16.71;45.01
78488;BME280;67885;49.758;9.582;2023-05-29T04:12:35;99366.69;;;16.76;45.10
78488;BME280;67885;49.758;9.582;2023-05-29T04:15:03;99361.69;;;16.73;45.27
78488;BME280;67885;49.758;9.582;2023-05-29T04:17:29;99363.81;;;16.69;45.20
78488;BME280;67885;49.758;9.582;2023-05-29T04:19:57;99367.50;;;16.68;45.51
78488;BME280;67885;49.758;9.582;2023-05-29T04:22:25;99382.09;;;16.74;45.25
78488;BME280;67885;49.758;9.582;2023-05-29T04:24:51;99375.88;;;16.74;45.26
78488;BME280;67885;49.758;9.582;2023-05-29T04:27:18;99381.56;;;16.71;45.56
78488;BME280;67885;49.758;9.582;2023-05-29T04:29:44;99380.72;;;16.70;45.77
78488;BME280;67885;49.758;9.582;2023-05-29T04:32:11;99388.41;;;16.73;45.56
78488;BME280;67885;49.758;9.582;2023-05-29T04:34:38;99382.25;;;16.73;45.68
78488;BME280;67885;49.758;9.582;2023-05-29T04:37:06;99384.91;;;16.73;46.26
78488;BME280;67885;49.758;9.582;2023-05-29T04:39:33;99387.22;;;16.67;46.16
78488;BME280;67885;49.758;9.582;2023-05-29T04:41:59;99382.69;;;16.68;45.85
78488;BME280;67885;49.758;9.582;2023-05-29T04:44:26;99384.56;;;16.67;46.46
78488;BME280;67885;49.758;9.582;2023-05-29T04:46:54;99384.22;;;16.71;46.20
78488;BME280;67885;49.758;9.582;2023-05-29T04:49:22;99396.13;;;16.76;46.50
78488;BME280;67885;49.758;9.582;2023-05-29T04:51:49;99396.50;;;16.81;46.63
78488;BME280;67885;49.758;9.582;2023-05-29T04:54:19;99403.91;;;16.88;46.17
78488;BME280;67885;49.758;9.582;2023-05-29T04:56:46;99410.06;;;16.88;46.11
78488;BME280;67885;49.758;9.582;2023-05-29T04:59:13;99422.50;;;16.89;45.37
78488;BME280;67885;49.758;9.582;2023-05-29T05:01:39;99352.00;;;16.46;46.03
78488;BME280;67885;49.758;9.582;2023-05-29T05:04:08;99414.47;;;16.89;45.55
78488;BME280;67885;49.758;9.582;2023-05-29T05:06:35;99418.94;;;16.89;45.82
78488;BME280;67885;49.758;9.582;2023-05-29T05:09:03;99421.59;;;16.89;46.11
78488;BME280;67885;49.758;9.582;2023-05-29T05:11:31;99425.66;;;16.93;45.83
78488;BME280;67885;49.758;9.582;2023-05-29T05:13:57;99425.22;;;16.97;46.12
78488;BME280;67885;49.758;9.582;2023-05-29T05:16:24;99426.72;;;17.00;46.14
78488;BME280;67885;49.758;9.582;2023-05-29T05:18:51;99432.44;;;17.05;46.35
78488;BME280;67885;49.758;9.582;2023-05-29T05:21:17;99431.44;;;17.06;46.11
78488;BME280;67885;49.758;9.582;2023-05-29T05:23:45;99438.13;;;17.10;46.13
78488;BME280;67885;49.758;9.582;2023-05-29T05:26:12;99436.38;;;17.19;46.35
78488;BME280;67885;49.758;9.582;2023-05-29T05:28:40;99442.75;;;17.26;46.79
78488;BME280;67885;49.758;9.582;2023-05-29T05:31:06;99445.97;;;17.38;46.83
78488;BME280;67885;49.758;9.582;2023-05-29T05:33:34;99447.53;;;17.49;47.17
78488;BME280;67885;49.758;9.582;2023-05-29T05:36:01;99447.22;;;17.60;46.73
78488;BME280;67885;49.758;9.582;2023-05-29T05:38:27;99439.75;;;17.72;46.44
78488;BME280;67885;49.758;9.582;2023-05-29T05:40:54;99445.94;;;17.81;46.77
78488;BME280;67885;49.758;9.582;2023-05-29T05:43:21;99324.94;;;17.18;46.88
78488;BME280;67885;49.758;9.582;2023-05-29T05:45:49;99476.34;;;18.06;45.69
78488;BME280;67885;49.758;9.582;2023-05-29T05:48:16;99487.25;;;18.21;45.94
78488;BME280;67885;49.758;9.582;2023-05-29T05:50:43;99420.91;;;18.15;45.98
78488;BME280;67885;49.758;9.582;2023-05-29T05:53:10;99436.84;;;18.41;45.64
78488;BME280;67885;49.758;9.582;2023-05-29T05:55:37;99465.50;;;18.65;45.61
78488;BME280;67885;49.758;9.582;2023-05-29T05:58:04;99440.84;;;18.70;44.71
78488;BME280;67885;49.758;9.582;2023-05-29T06:00:30;99446.38;;;18.77;45.03
78488;BME280;67885;49.758;9.582;2023-05-29T06:02:59;99461.47;;;18.94;44.52
78488;BME280;67885;49.758;9.582;2023-05-29T06:05:28;99456.75;;;18.96;44.46
78488;BME280;67885;49.758;9.582;2023-05-29T06:07:54;99473.50;;;19.15;44.85
78488;BME280;67885;49.758;9.582;2023-05-29T06:10:21;99433.25;;;19.07;44.53
78488;BME280;67885;49.758;9.582;2023-05-29T06:12:48;99483.81;;;19.43;44.51
78488;BME280;67885;49.758;9.582;2023-05-29T06:15:15;99474.50;;;19.62;43.35
78488;BME280;67885;49.758;9.582;2023-05-29T06:17:42;99476.25;;;19.78;43.33
78488;BME280;67885;49.758;9.582;2023-05-29T06:20:10;99460.91;;;19.95;41.81
78488;BME280;67885;49.758;9.582;2023-05-29T06:22:39;99468.41;;;20.08;41.82
78488;BME280;67885;49.758;9.582;2023-05-29T06:25:06;99452.97;;;20.01;39.25
78488;BME280;67885;49.758;9.582;2023-05-29T06:27:34;99440.91;;;20.20;39.65
78488;BME280;67885;49.758;9.582;2023-05-29T06:30:00;99485.63;;;20.45;39.75
78488;BME280;67885;49.758;9.582;2023-05-29T06:32:27;99475.56;;;20.62;39.14
78488;BME280;67885;49.758;9.582;2023-05-29T06:34:54;99383.31;;;20.15;40.81
78488;BME280;67885;49.758;9.582;2023-05-29T06:37:22;99464.31;;;20.81;38.62
78488;BME280;67885;49.758;9.582;2023-05-29T06:39:49;99475.13;;;20.96;39.86
78488;BME280;67885;49.758;9.582;2023-05-29T06:42:16;99472.06;;;21.14;38.17
78488;BME280;67885;49.758;9.582;2023-05-29T06:44:42;99493.59;;;21.29;38.81
78488;BME280;67885;49.758;9.582;2023-05-29T06:47:09;99484.50;;;21.45;38.38
78488;BME280;67885;49.758;9.582;2023-05-29T06:49:35;99475.44;;;21.61;36.56
78488;BME280;67885;49.758;9.582;2023-05-29T06:52:02;99469.34;;;21.74;37.07
78488;BME280;67885;49.758;9.582;2023-05-29T06:54:30;99476.38;;;21.90;35.88
78488;BME280;67885;49.758;9.582;2023-05-29T06:56:57;99495.97;;;21.99;36.68
78488;BME280;67885;49.758;9.582;2023-05-29T06:59:23;99512.31;;;22.12;36.09
78488;BME280;67885;49.758;9.582;2023-05-29T07:01:50;99507.25;;;22.24;36.82
78488;BME280;67885;49.758;9.582;2023-05-29T07:04:17;99508.91;;;22.40;37.78
78488;BME280;67885;49.758;9.582;2023-05-29T07:06:43;99469.97;;;22.49;36.41
78488;BME280;67885;49.758;9.582;2023-05-29T07:09:10;99483.25;;;22.72;35.75
78488;BME280;67885;49.758;9.582;2023-05-29T07:11:39;99484.13;;;22.80;35.29
78488;BME280;67885;49.758;9.582;2023-05-29T07:14:05;99490.22;;;22.88;35.50
78488;BME280;67885;49.758;9.582;2023-05-29T07:16:32;99485.75;;;23.02;37.06
78488;BME280;67885;49.758;9.582;2023-05-29T07:18:59;99456.19;;;22.94;36.47
78488;BME280;67885;49.758;9.582;2023-05-29T07:21:26;99492.47;;;23.42;35.01
78488;BME280;67885;49.758;9.582;2023-05-29T07:23:52;99488.41;;;23.59;35.53
78488;BME280;67885;49.758;9.582;2023-05-29T07:26:19;99487.19;;;23.75;33.72
78488;BME280;67885;49.758;9.582;2023-05-29T07:28:47;99477.25;;;23.82;33.27
78488;BME280;67885;49.758;9.582;2023-05-29T07:31:14;99478.97;;;23.90;33.68
78488;BME280;67885;49.758;9.582;2023-05-29T07:33:40;99473.78;;;23.95;33.52
78488;BME280;67885;49.758;9.582;2023-05-29T07:36:07;99473.81;;;24.08;34.71
78488;BME280;67885;49.758;9.582;2023-05-29T07:38:34;99472.16;;;24.14;33.99
78488;BME280;67885;49.758;9.582;2023-05-29T07:41:00;99483.03;;;24.34;33.81
78488;BME280;67885;49.758;9.582;2023-05-29T07:43:27;99481.59;;;24.45;31.01
78488;BME280;67885;49.758;9.582;2023-05-29T07:45:55;99476.38;;;24.50;32.50
78488;BME280;67885;49.758;9.582;2023-05-29T07:48:21;99483.09;;;24.68;32.29
78488;BME280;67885;49.758;9.582;2023-05-29T07:50:48;99486.84;;;24.87;31.44
78488;BME280;67885;49.758;9.582;2023-05-29T07:53:14;99483.91;;;25.02;32.66
78488;BME280;67885;49.758;9.582;2023-05-29T07:55:41;99486.38;;;25.17;31.05
78488;BME280;67885;49.758;9.582;2023-05-29T07:58:08;99483.25;;;25.33;32.16
78488;BME280;67885;49.758;9.582;2023-05-29T08:00:36;99485.47;;;25.50;30.93
78488;BME280;67885;49.758;9.582;2023-05-29T08:03:05;99495.84;;;25.66;31.06
78488;BME280;67885;49.758;9.582;2023-05-29T08:05:31;99491.22;;;25.80;30.03
78488;BME280;67885;49.758;9.582;2023-05-29T08:07:58;99483.69;;;25.82;30.70
78488;BME280;67885;49.758;9.582;2023-05-29T08:10:25;99493.00;;;26.00;29.52
78488;BME280;67885;49.758;9.582;2023-05-29T08:12:52;99491.09;;;26.07;29.49
78488;BME280;67885;49.758;9.582;2023-05-29T08:15:18;99481.88;;;26.15;29.55
78488;BME280;67885;49.758;9.582;2023-05-29T08:17:45;99484.97;;;26.25;29.07
78488;BME280;67885;49.758;9.582;2023-05-29T08:20:13;99484.69;;;26.33;30.59
78488;BME280;67885;49.758;9.582;2023-05-29T08:22:40;99481.09;;;26.39;29.17
78488;BME280;67885;49.758;9.582;2023-05-29T08:25:07;99468.13;;;26.41;28.92
78488;BME280;67885;49.758;9.582;2023-05-29T08:27:34;99478.72;;;26.50;28.10
78488;BME280;67885;49.758;9.582;2023-05-29T08:30:01;99487.88;;;26.55;27.97
78488;BME280;67885;49.758;9.582;2023-05-29T08:32:28;99483.13;;;26.51;28.25
78488;BME280;67885;49.758;9.582;2023-05-29T08:34:54;99479.72;;;26.55;28.38
78488;BME280;67885;49.758;9.582;2023-05-29T08:37:22;99482.16;;;26.64;28.33
78488;BME280;67885;49.758;9.582;2023-05-29T08:39:50;99469.38;;;26.71;29.46
78488;BME280;67885;49.758;9.582;2023-05-29T08:42:21;99471.75;;;26.86;29.20
78488;BME280;67885;49.758;9.582;2023-05-29T08:44:55;99458.78;;;26.88;27.96
78488;BME280;67885;49.758;9.582;2023-05-29T08:47:26;99474.06;;;27.07;26.94
78488;BME280;67885;49.758;9.582;2023-05-29T08:49:53;99466.53;;;27.09;27.00
78488;BME280;67885;49.758;9.582;2023-05-29T08:52:24;99470.06;;;27.10;27.67
78488;BME280;67885;49.758;9.582;2023-05-29T08:54:52;99441.66;;;26.87;26.69
78488;BME280;67885;49.758;9.582;2023-05-29T08:57:19;99457.44;;;27.16;26.75
78488;BME280;67885;49.758;9.582;2023-05-29T08:59:48;99455.34;;;27.18;25.84
78488;BME280;67885;49.758;9.582;2023-05-29T09:02:17;99459.34;;;27.15;25.84
78488;BME280;67885;49.758;9.582;2023-05-29T09:04:45;99464.31;;;27.18;26.44
78488;BME280;67885;49.758;9.582;2023-05-29T09:07:14;99468.88;;;27.24;25.94
78488;BME280;67885;49.758;9.582;2023-05-29T09:09:42;99476.34;;;27.29;26.01
78488;BME280;67885;49.758;9.582;2023-05-29T09:12:09;99464.03;;;27.26;26.92
78488;BME280;67885;49.758;9.582;2023-05-29T09:14:37;99453.31;;;27.32;25.86
78488;BME280;67885;49.758;9.582;2023-05-29T09:17:05;99459.75;;;27.37;25.84
78488;BME280;67885;49.758;9.582;2023-05-29T09:19:33;99463.47;;;27.43;25.56
78488;BME280;67885;49.758;9.582;2023-05-29T09:22:04;99456.75;;;27.46;25.50
78488;BME280;67885;49.758;9.582;2023-05-29T09:24:33;99463.53;;;27.55;27.13
78488;BME280;67885;49.758;9.582;2023-05-29T09:27:03;99444.13;;;27.51;25.29
78488;BME280;67885;49.758;9.582;2023-05-29T09:29:31;99457.78;;;27.63;26.17
78488;BME280;67885;49.758;9.582;2023-05-29T09:31:58;99465.19;;;27.74;24.89
78488;BME280;67885;49.758;9.582;2023-05-29T09:34:25;99470.63;;;27.74;23.78
78488;BME280;67885;49.758;9.582;2023-05-29T09:36:53;99463.50;;;27.73;23.66
78488;BME280;67885;49.758;9.582;2023-05-29T09:39:21;99468.88;;;27.80;23.18
78488;BME280;67885;49.758;9.582;2023-05-29T09:41:48;99466.16;;;27.80;23.55
78488;BME280;67885;49.758;9.582;2023-05-29T09:44:16;99458.88;;;27.74;23.85
78488;BME280;67885;49.758;9.582;2023-05-29T09:46:43;99433.59;;;27.55;24.03
78488;BME280;67885;49.758;9.582;2023-05-29T09:49:12;99474.06;;;27.82;24.70
78488;BME280;67885;49.758;9.582;2023-05-29T09:51:39;99461.19;;;27.89;24.44
78488;BME280;67885;49.758;9.582;2023-05-29T09:54:17;99400.19;;;27.66;23.77
78488;BME280;67885;49.758;9.582;2023-05-29T09:56:45;99454.34;;;28.17;22.72
78488;BME280;67885;49.758;9.582;2023-05-29T09:59:14;99468.84;;;28.29;22.93
78488;BME280;67885;49.758;9.582;2023-05-29T10:01:44;99439.13;;;28.27;23.13
78488;BME280;67885;49.758;9.582;2023-05-29T10:04:11;99446.34;;;28.34;23.54
78488;BME280;67885;49.758;9.582;2023-05-29T10:06:44;99441.69;;;28.22;22.84
78488;BME280;67885;49.758;9.582;2023-05-29T10:09:18;99445.03;;;28.24;23.79
78488;BME280;67885;49.758;9.582;2023-05-29T10:11:48;99451.78;;;28.22;23.84
78488;BME280;67885;49.758;9.582;2023-05-29T10:14:18;99444.66;;;28.21;22.98
78488;BME280;67885;49.758;9.582;2023-05-29T10:16:49;99451.63;;;28.17;24.30
78488;BME280;67885;49.758;9.582;2023-05-29T10:19:21;99443.94;;;28.14;22.71
78488;BME280;67885;49.758;9.582;2023-05-29T10:21:49;99441.91;;;28.09;23.33
78488;BME280;67885;49.758;9.582;2023-05-29T10:24:17;99439.41;;;28.07;23.32
78488;BME280;67885;49.758;9.582;2023-05-29T10:26:47;99447.97;;;28.11;24.04
78488;BME280;67885;49.758;9.582;2023-05-29T10:29:21;99431.41;;;27.94;23.63
78488;BME280;67885;49.758;9.582;2023-05-29T10:32:04;99409.38;;;27.96;22.81
78488;BME280;67885;49.758;9.582;2023-05-29T10:34:42;99442.06;;;28.26;23.81
78488;BME280;67885;49.758;9.582;2023-05-29T10:37:22;99450.94;;;28.21;23.22
78488;BME280;67885;49.758;9.582;2023-05-29T10:39:50;99440.50;;;28.18;23.16
78488;BME280;67885;49.758;9.582;2023-05-29T10:42:42;99442.75;;;28.21;23.54
78488;BME280;67885;49.758;9.582;2023-05-29T10:45:09;99446.91;;;28.24;23.12
78488;BME280;67885;49.758;9.582;2023-05-29T10:47:38;99438.75;;;28.24;23.01
78488;BME280;67885;49.758;9.582;2023-05-29T10:50:06;99439.78;;;28.23;23.07
78488;BME280;67885;49.758;9.582;2023-05-29T10:52:32;99437.06;;;28.23;23.21
78488;BME280;67885;49.758;9.582;2023-05-29T10:54:59;99440.88;;;28.22;23.02
78488;BME280;67885;49.758;9.582;2023-05-29T10:57:29;99449.16;;;28.15;23.68
78488;BME280;67885;49.758;9.582;2023-05-29T11:00:06;99448.56;;;28.25;22.91
78488;BME280;67885;49.758;9.582;2023-05-29T11:02:40;99451.06;;;28.26;23.47
78488;BME280;67885;49.758;9.582;2023-05-29T11:05:18;99421.81;;;28.22;23.07
78488;BME280;67885;49.758;9.582;2023-05-29T11:07:58;99433.31;;;28.36;22.86
78488;BME280;67885;49.758;9.582;2023-05-29T11:10:42;99437.97;;;28.35;23.09
78488;BME280;67885;49.758;9.582;2023-05-29T11:13:10;99432.84;;;28.39;23.10
78488;BME280;67885;49.758;9.582;2023-05-29T11:15:37;99432.97;;;28.44;22.87
78488;BME280;67885;49.758;9.582;2023-05-29T11:18:08;99430.63;;;28.48;22.53
78488;BME280;67885;49.758;9.582;2023-05-29T11:20:43;99434.66;;;28.57;23.71
78488;BME280;67885;49.758;9.582;2023-05-29T11:23:17;99427.56;;;28.56;24.05
78488;BME280;67885;49.758;9.582;2023-05-29T11:25:46;99439.31;;;28.68;22.97
78488;BME280;67885;49.758;9.582;2023-05-29T11:36:17;99080.50;;;26.18;23.49
78488;BME280;67885;49.758;9.582;2023-05-29T11:44:18;99420.81;;;28.82;22.74
78488;BME280;67885;49.758;9.582;2023-05-29T11:46:44;99393.88;;;28.62;22.91
78488;BME280;67885;49.758;9.582;2023-05-29T11:49:12;99429.00;;;28.82;23.04
78488;BME280;67885;49.758;9.582;2023-05-29T11:51:41;99424.03;;;28.91;22.80
78488;BME280;67885;49.758;9.582;2023-05-29T11:54:08;99424.38;;;28.94;23.27
78488;BME280;67885;49.758;9.582;2023-05-29T11:56:35;99427.59;;;28.91;22.89
78488;BME280;67885;49.758;9.582;2023-05-29T11:59:11;99417.50;;;28.92;22.85
78488;BME280;67885;49.758;9.582;2023-05-29T12:01:37;99417.97;;;28.89;22.22
78488;BME280;67885;49.758;9.582;2023-05-29T12:04:13;99414.78;;;28.80;23.34
78488;BME280;67885;49.758;9.582;2023-05-29T12:06:41;99424.59;;;28.93;23.02
78488;BME280;67885;49.758;9.582;2023-05-29T12:09:08;99431.50;;;28.96;22.38
78488;BME280;67885;49.758;9.582;2023-05-29T12:11:34;99423.44;;;28.89;22.67
78488;BME280;67885;49.758;9.582;2023-05-29T12:14:01;99419.66;;;28.90;22.63
78488;BME280;67885;49.758;9.582;2023-05-29T12:16:30;99420.94;;;28.87;22.80
78488;BME280;67885;49.758;9.582;2023-05-29T12:18:58;99410.03;;;28.87;22.16
78488;BME280;67885;49.758;9.582;2023-05-29T12:21:27;99410.53;;;28.84;22.48
78488;BME280;67885;49.758;9.582;2023-05-29T12:23:55;99407.31;;;28.87;22.61
78488;BME280;67885;49.758;9.582;2023-05-29T12:26:22;99405.19;;;28.89;22.85
78488;BME280;67885;49.758;9.582;2023-05-29T12:28:50;99407.69;;;28.91;22.67
78488;BME280;67885;49.758;9.582;2023-05-29T12:31:26;99404.59;;;28.87;22.75
78488;BME280;67885;49.758;9.582;2023-05-29T12:33:59;99434.81;;;28.86;22.00
78488;BME280;67885;49.758;9.582;2023-05-29T12:36:26;99428.44;;;28.80;22.57
78488;BME280;67885;49.758;9.582;2023-05-29T12:38:54;99410.78;;;28.83;21.87
78488;BME280;67885;49.758;9.582;2023-05-29T12:41:26;99287.88;;;28.01;22.95
78488;BME280;67885;49.758;9.582;2023-05-29T12:43:54;99413.25;;;28.84;22.35
78488;BME280;67885;49.758;9.582;2023-05-29T12:46:22;99421.19;;;28.86;22.22
78488;BME280;67885;49.758;9.582;2023-05-29T12:48:49;99406.38;;;28.82;22.76
78488;BME280;67885;49.758;9.582;2023-05-29T12:51:17;99405.31;;;28.83;22.93
78488;BME280;67885;49.758;9.582;2023-05-29T12:53:48;99409.09;;;28.93;23.14
78488;BME280;67885;49.758;9.582;2023-05-29T12:56:16;99405.41;;;29.00;22.78
78488;BME280;67885;49.758;9.582;2023-05-29T12:58:43;99399.94;;;29.00;22.48
78488;BME280;67885;49.758;9.582;2023-05-29T13:01:12;99396.16;;;29.01;22.88
78488;BME280;67885;49.758;9.582;2023-05-29T13:03:39;99340.34;;;28.56;23.26
78488;BME280;67885;49.758;9.582;2023-05-29T13:06:06;99383.69;;;29.05;22.62
78488;BME280;67885;49.758;9.582;2023-05-29T13:08:33;99380.16;;;29.04;22.88
78488;BME280;67885;49.758;9.582;2023-05-29T13:11:00;99393.78;;;29.04;22.53
78488;BME280;67885;49.758;9.582;2023-05-29T13:13:28;99394.84;;;29.03;23.28
78488;BME280;67885;49.758;9.582;2023-05-29T13:15:54;99102.44;;;26.96;23.36
78488;BME280;67885;49.758;9.582;2023-05-29T13:18:21;99102.72;;;26.76;22.82